Etusivu
METAR-TAF:

METAR-TAF

Lentoasemat :

Hearne Municipal Airport

Hearne, Texas, Yhdysvallat

Leveyspiiri: 30-52-18N, Pituuspiiri: 096-37-20W, korkeus merenpinnasta: 87 m

Tämänhetkinen sää

Tämä raportti tehtiin 21 minuuttia sitten, kello 10.35 UTC
Tuuli 4 kn etelästä/kaakosta
Lämpötila 16°C
Kosteus 94%
Ilmanpaine 1008 hPa
Näkyvyys: 0.8 km
Pilvistä 200 ft:n korkeudessa
sumua

METAR: KLHB 151035Z AUTO 16004KT 1/2SM FG OVC002 16/15 A2977 RMK AO2 T01570152

Aika: 04:56 (10:56 UTC)


TAF: puuttuu

Säähavainnot ja -ennusteet yli 4000 lentoasemalta (METAR- ja TAF-raportit).

Käytössä olevat sääasemat on merkitty karttaan keltaisilla ja punaisilla pisteillä.

Aseta hiiri pisteen päälle nähdäksesi sääaseman nimen.

Klikkaa sitten nähdäksesi säähavainnot ja -ennusteet.

Kartan vaihtaminen: klikkaa mustalla rastilla varustettuja vihreitä pisteitä, niin voit zoomata sisään; viivalla varustettua vihreää pistettä, niin voit zoomata ulos tai vihreitä nuolia, niin pääset viereisille kartoille.


METAR-TAF: